Time;durP1;ratioP1;P1;durP2;ratioP2;P2;SDS_P1;SDS_P2;PMS_P1;PMS_P2;Temp;Humidity;BMP_temperature;BMP_pressure;BME280_temperature;BME280_humidity;BME280_pressure;Samples;Min_cycle;Max_cycle;Signal;HPM_P1;HPM_P2
2021/12/03 00:01:54;;;;;;;6.18;1.00;;;;;;;;;;5043955;28;20412;-63
2021/12/03 00:04:20;;;;;;;9.40;1.67;;;;;;;;;;5056134;28;20445;-63
2021/12/03 00:06:46;;;;;;;9.02;1.38;;;;;;;;;;5056659;28;20033;-63
2021/12/03 00:09:13;;;;;;;6.88;1.55;;;;;;;;;;5043406;28;20202;-63
2021/12/03 00:11:39;;;;;;;4.15;1.67;;;;;;;;;;5056534;28;20045;-62
2021/12/03 00:14:05;;;;;;;8.07;1.30;;;;;;;;;;5057895;28;20041;-63
2021/12/03 00:16:31;;;;;;;7.18;1.15;;;;;;;;;;5055646;28;20128;-63
2021/12/03 00:18:57;;;;;;;7.45;1.48;;;;;;;;;;5053009;28;20048;-63
2021/12/03 00:21:25;;;;;;;5.22;2.15;;;;;;;;;;5060360;28;20084;-63
2021/12/03 00:23:52;;;;;;;4.60;1.13;;;;;;;;;;5057330;28;20041;-62
2021/12/03 00:26:18;;;;;;;13.48;1.50;;;;;;;;;;5056631;28;20051;-62
2021/12/03 00:28:44;;;;;;;10.27;1.77;;;;;;;;;;5059006;28;20048;-62
2021/12/03 00:31:11;;;;;;;6.30;1.70;;;;;;;;;;5056647;28;20106;-63
2021/12/03 00:33:37;;;;;;;6.38;1.00;;;;;;;;;;5043333;28;20098;-63
2021/12/03 00:36:06;;;;;;;6.53;1.75;;;;;;;;;;5064224;28;20139;-63
2021/12/03 00:38:37;;;;;;;4.95;1.20;;;;;;;;;;5064070;28;20131;-63
2021/12/03 00:41:06;;;;;;;6.18;1.20;;;;;;;;;;5058218;28;20128;-63
2021/12/03 00:43:32;;;;;;;5.80;1.30;;;;;;;;;;5058410;28;20045;-63
2021/12/03 00:46:05;;;;;;;6.20;1.40;;;;;;;;;;5052446;28;20045;-63
2021/12/03 00:48:32;;;;;;;6.05;1.20;;;;;;;;;;5058318;28;20051;-63
2021/12/03 00:50:58;;;;;;;7.88;1.45;;;;;;;;;;5044405;28;20047;-63
2021/12/03 00:53:24;;;;;;;7.65;1.50;;;;;;;;;;5044039;28;20060;-63
2021/12/03 00:55:51;;;;;;;8.70;1.40;;;;;;;;;;5056585;28;20049;-63
2021/12/03 00:58:17;;;;;;;11.57;1.30;;;;;;;;;;5056819;28;20067;-63
2021/12/03 01:00:43;;;;;;;7.32;1.13;;;;;;;;;;5057146;28;20079;-63
2021/12/03 01:03:09;;;;;;;7.18;1.35;;;;;;;;;;5064481;28;20036;-63
2021/12/03 01:05:36;;;;;;;7.13;1.27;;;;;;;;;;5055825;28;20043;-62
2021/12/03 01:08:03;;;;;;;6.53;2.03;;;;;;;;;;5058973;28;20052;-62
2021/12/03 01:10:29;;;;;;;7.90;1.63;;;;;;;;;;5055574;28;20116;-63
2021/12/03 01:12:56;;;;;;;8.85;1.48;;;;;;;;;;5057365;28;20369;-63
2021/12/03 01:15:24;;;;;;;11.90;1.33;;;;;;;;;;5060069;28;20384;-62
2021/12/03 01:17:51;;;;;;;5.00;1.00;;;;;;;;;;5058819;28;20037;-62
2021/12/03 01:20:17;;;;;;;8.15;1.00;;;;;;;;;;5044214;28;20106;-62
2021/12/03 01:22:45;;;;;;;4.53;1.27;;;;;;;;;;5057281;28;20467;-63
2021/12/03 01:25:12;;;;;;;7.60;1.55;;;;;;;;;;5055738;28;20407;-63
2021/12/03 01:27:38;;;;;;;7.18;1.33;;;;;;;;;;5057953;28;20352;-63
2021/12/03 01:30:07;;;;;;;4.30;0.98;;;;;;;;;;5058603;28;20041;-62
2021/12/03 01:32:33;;;;;;;5.80;1.20;;;;;;;;;;5057852;28;20072;-63
2021/12/03 01:34:59;;;;;;;7.30;1.60;;;;;;;;;;5058806;28;20036;-63
2021/12/03 01:37:25;;;;;;;7.05;1.80;;;;;;;;;;5057503;28;20578;-63
2021/12/03 01:39:52;;;;;;;4.85;1.27;;;;;;;;;;5053689;28;20140;-62
2021/12/03 01:42:18;;;;;;;11.30;1.88;;;;;;;;;;5058573;28;20452;-63
2021/12/03 01:44:44;;;;;;;7.25;1.33;;;;;;;;;;5059944;28;20123;-62
2021/12/03 01:47:10;;;;;;;10.18;1.35;;;;;;;;;;5058033;28;20036;-62
2021/12/03 01:49:36;;;;;;;13.43;3.47;;;;;;;;;;5054943;28;20044;-63
2021/12/03 01:52:03;;;;;;;7.70;1.50;;;;;;;;;;5058095;28;20416;-63
2021/12/03 01:54:29;;;;;;;8.13;1.98;;;;;;;;;;5043471;28;20044;-62
2021/12/03 01:56:55;;;;;;;10.77;1.40;;;;;;;;;;5055315;28;20494;-62
2021/12/03 01:59:22;;;;;;;6.57;1.65;;;;;;;;;;5039408;28;20059;-62
2021/12/03 02:01:48;;;;;;;5.97;1.17;;;;;;;;;;5050959;28;20504;-63
2021/12/03 02:04:15;;;;;;;6.30;1.10;;;;;;;;;;5040318;28;20056;-63
2021/12/03 02:06:42;;;;;;;8.32;1.55;;;;;;;;;;5058245;28;20491;-63
2021/12/03 02:09:08;;;;;;;10.23;1.20;;;;;;;;;;5046808;28;20068;-62
2021/12/03 02:11:35;;;;;;;11.32;1.50;;;;;;;;;;5055960;28;20075;-63
2021/12/03 02:14:02;;;;;;;13.93;1.42;;;;;;;;;;5055243;28;20128;-62
2021/12/03 02:16:28;;;;;;;8.45;1.58;;;;;;;;;;5057133;28;20048;-63
2021/12/03 02:18:54;;;;;;;10.07;1.40;;;;;;;;;;5039586;28;20132;-63
2021/12/03 02:21:21;;;;;;;7.57;1.38;;;;;;;;;;5053142;28;20044;-63
2021/12/03 02:23:48;;;;;;;6.78;1.30;;;;;;;;;;5050070;28;20132;-62
2021/12/03 02:26:14;;;;;;;8.85;1.25;;;;;;;;;;5064063;28;20041;-63
2021/12/03 02:28:42;;;;;;;5.43;0.90;;;;;;;;;;5063949;28;20044;-62
2021/12/03 02:31:09;;;;;;;6.38;1.63;;;;;;;;;;5059505;28;20037;-62
2021/12/03 02:33:36;;;;;;;8.85;1.27;;;;;;;;;;5062225;28;20398;-62
2021/12/03 02:36:02;;;;;;;10.63;1.30;;;;;;;;;;5045527;28;20045;-62
2021/12/03 02:38:28;;;;;;;14.15;1.50;;;;;;;;;;5060967;28;20503;-62
2021/12/03 02:40:55;;;;;;;6.78;1.40;;;;;;;;;;5063834;28;20119;-62
2021/12/03 02:43:22;;;;;;;6.82;1.25;;;;;;;;;;5061493;28;20215;-62
2021/12/03 02:45:50;;;;;;;8.48;1.45;;;;;;;;;;5060596;28;20095;-63
2021/12/03 02:48:17;;;;;;;5.45;1.10;;;;;;;;;;5040768;28;20388;-62
2021/12/03 02:50:43;;;;;;;9.38;1.63;;;;;;;;;;5057245;28;20086;-63
2021/12/03 02:53:09;;;;;;;4.35;1.23;;;;;;;;;;5057938;28;20397;-63
2021/12/03 02:55:36;;;;;;;9.27;1.50;;;;;;;;;;5061203;28;20090;-63
2021/12/03 02:58:03;;;;;;;7.78;1.10;;;;;;;;;;5059088;28;20048;-62
2021/12/03 03:00:29;;;;;;;8.98;1.23;;;;;;;;;;5043884;28;20048;-63
2021/12/03 03:02:57;;;;;;;3.97;1.00;;;;;;;;;;5049496;28;20091;-62
2021/12/03 03:05:24;;;;;;;8.65;1.45;;;;;;;;;;5053951;28;20113;-62
2021/12/03 03:07:50;;;;;;;7.95;1.40;;;;;;;;;;5056878;28;20037;-62
2021/12/03 03:10:19;;;;;;;12.70;1.70;;;;;;;;;;5060255;28;20513;-63
2021/12/03 03:12:45;;;;;;;6.43;1.40;;;;;;;;;;5059991;28;20115;-62
2021/12/03 03:15:12;;;;;;;4.15;1.48;;;;;;;;;;5055901;28;20048;-62
2021/12/03 03:17:39;;;;;;;8.20;1.45;;;;;;;;;;5059519;28;20349;-62
2021/12/03 03:20:06;;;;;;;8.98;1.30;;;;;;;;;;5058302;28;20085;-62
2021/12/03 03:22:32;;;;;;;12.25;1.50;;;;;;;;;;5060745;28;20063;-62
2021/12/03 03:25:00;;;;;;;8.30;1.40;;;;;;;;;;5045960;28;20961;-62
2021/12/03 03:27:27;;;;;;;8.57;1.30;;;;;;;;;;5046061;28;20499;-62
2021/12/03 03:29:54;;;;;;;5.78;1.42;;;;;;;;;;5039748;28;20134;-62
2021/12/03 03:32:20;;;;;;;13.43;2.28;;;;;;;;;;5061832;28;20131;-62
2021/12/03 03:34:46;;;;;;;11.32;1.85;;;;;;;;;;5066914;28;20062;-62
2021/12/03 03:37:13;;;;;;;9.65;2.55;;;;;;;;;;5067513;28;20317;-62
2021/12/03 03:39:39;;;;;;;9.27;1.98;;;;;;;;;;5064251;28;20379;-62
2021/12/03 03:42:05;;;;;;;8.95;1.52;;;;;;;;;;5055304;28;20044;-62
2021/12/03 03:44:32;;;;;;;22.85;2.47;;;;;;;;;;5045651;28;20514;-62
2021/12/03 03:47:00;;;;;;;13.98;2.20;;;;;;;;;;5057590;28;20112;-62
2021/12/03 03:49:26;;;;;;;10.63;2.35;;;;;;;;;;5039093;28;20049;-62
2021/12/03 03:51:54;;;;;;;13.15;3.05;;;;;;;;;;5060206;28;20072;-62
2021/12/03 03:54:20;;;;;;;12.35;3.60;;;;;;;;;;5048932;28;20133;-62
2021/12/03 03:56:46;;;;;;;11.73;3.00;;;;;;;;;;5062457;28;20515;-63
2021/12/03 03:59:16;;;;;;;15.70;4.70;;;;;;;;;;5049880;28;20047;-62
2021/12/03 04:01:43;;;;;;;19.42;3.85;;;;;;;;;;5060871;28;20496;-62
2021/12/03 04:04:09;;;;;;;12.65;3.78;;;;;;;;;;5057817;28;20063;-62
2021/12/03 04:06:35;;;;;;;13.50;4.45;;;;;;;;;;5046299;28;20049;-62
2021/12/03 04:09:01;;;;;;;16.05;3.90;;;;;;;;;;5057488;28;20478;-62
2021/12/03 04:11:27;;;;;;;17.25;4.10;;;;;;;;;;5062904;28;20040;-62
2021/12/03 04:13:54;;;;;;;12.07;3.25;;;;;;;;;;5062673;28;20480;-62
2021/12/03 04:16:20;;;;;;;15.27;3.53;;;;;;;;;;5052136;28;20484;-62
2021/12/03 04:18:47;;;;;;;12.45;4.40;;;;;;;;;;5039906;28;20500;-63
2021/12/03 04:21:14;;;;;;;9.77;3.58;;;;;;;;;;5057550;28;20041;-62
2021/12/03 04:23:40;;;;;;;20.63;4.90;;;;;;;;;;5042277;28;20365;-62
2021/12/03 04:26:07;;;;;;;14.73;3.88;;;;;;;;;;5060172;28;20076;-62
2021/12/03 04:28:33;;;;;;;12.80;4.28;;;;;;;;;;5053845;28;20505;-62
2021/12/03 04:30:59;;;;;;;11.57;4.13;;;;;;;;;;5053009;28;20493;-62
2021/12/03 04:33:25;;;;;;;12.48;3.78;;;;;;;;;;5054574;28;20412;-62
2021/12/03 04:35:52;;;;;;;14.00;4.00;;;;;;;;;;5058615;28;20063;-62
2021/12/03 04:38:18;;;;;;;13.95;4.78;;;;;;;;;;5061051;28;20059;-62
2021/12/03 04:40:44;;;;;;;10.98;3.83;;;;;;;;;;5058632;28;20043;-62
2021/12/03 04:43:11;;;;;;;14.90;4.57;;;;;;;;;;5054388;28;20052;-62
2021/12/03 04:45:37;;;;;;;9.95;3.80;;;;;;;;;;5042948;28;20496;-63
2021/12/03 04:48:04;;;;;;;13.60;4.47;;;;;;;;;;5051953;28;20500;-62
2021/12/03 04:50:32;;;;;;;11.73;4.13;;;;;;;;;;5059133;28;20210;-63
2021/12/03 04:52:58;;;;;;;14.00;5.00;;;;;;;;;;5059397;28;20422;-62
2021/12/03 04:55:25;;;;;;;12.20;4.07;;;;;;;;;;5056902;28;20127;-62
2021/12/03 04:57:53;;;;;;;14.85;4.40;;;;;;;;;;5063277;28;20048;-62
2021/12/03 05:00:21;;;;;;;14.65;3.63;;;;;;;;;;5066185;28;20045;-62
2021/12/03 05:02:49;;;;;;;12.32;3.13;;;;;;;;;;5056317;28;20120;-62
2021/12/03 05:05:17;;;;;;;15.10;3.35;;;;;;;;;;5054975;28;20040;-62
2021/12/03 05:07:57;;;;;;;10.05;3.53;;;;;;;;;;5056427;28;20069;-62
2021/12/03 05:10:24;;;;;;;11.93;3.55;;;;;;;;;;5044944;28;20074;-62
2021/12/03 05:12:51;;;;;;;12.02;2.50;;;;;;;;;;5058073;28;20040;-62
2021/12/03 05:15:18;;;;;;;13.00;2.78;;;;;;;;;;5064616;28;20391;-62
2021/12/03 05:17:44;;;;;;;12.43;3.85;;;;;;;;;;5064820;28;20041;-62
2021/12/03 05:20:11;;;;;;;11.10;3.13;;;;;;;;;;5068666;28;20036;-62
2021/12/03 05:22:37;;;;;;;15.35;2.92;;;;;;;;;;5066986;28;20036;-62
2021/12/03 05:25:03;;;;;;;11.43;2.83;;;;;;;;;;5045245;28;20133;-62
2021/12/03 05:27:29;;;;;;;23.15;3.88;;;;;;;;;;5059021;28;20047;-62
2021/12/03 05:29:56;;;;;;;9.55;3.30;;;;;;;;;;5056223;28;20484;-62
2021/12/03 05:32:22;;;;;;;12.27;2.90;;;;;;;;;;5057669;28;20376;-62
2021/12/03 05:34:48;;;;;;;11.35;3.17;;;;;;;;;;5046199;28;20048;-62
2021/12/03 05:37:14;;;;;;;12.25;3.60;;;;;;;;;;5041756;28;20048;-62
2021/12/03 05:39:40;;;;;;;12.07;3.40;;;;;;;;;;5056223;28;20045;-62
2021/12/03 05:42:07;;;;;;;11.05;3.50;;;;;;;;;;5058055;28;20404;-62
2021/12/03 05:44:33;;;;;;;11.75;3.55;;;;;;;;;;5067133;28;20472;-62
2021/12/03 05:47:00;;;;;;;13.13;3.53;;;;;;;;;;5061748;28;20360;-62
2021/12/03 05:49:26;;;;;;;8.10;2.83;;;;;;;;;;5063217;28;20214;-62
2021/12/03 05:51:52;;;;;;;14.02;2.33;;;;;;;;;;5062768;28;20047;-62
2021/12/03 05:54:20;;;;;;;8.35;1.88;;;;;;;;;;5058552;28;20721;-63
2021/12/03 05:56:46;;;;;;;13.48;2.88;;;;;;;;;;5063471;28;20033;-62
2021/12/03 05:59:12;;;;;;;9.82;2.20;;;;;;;;;;5059435;28;20136;-62
2021/12/03 06:01:38;;;;;;;9.57;2.40;;;;;;;;;;5057130;28;20079;-61
2021/12/03 06:04:05;;;;;;;9.88;2.38;;;;;;;;;;5062653;28;20364;-62
2021/12/03 06:06:31;;;;;;;9.32;2.28;;;;;;;;;;5057614;28;20068;-62
2021/12/03 06:08:58;;;;;;;18.35;2.40;;;;;;;;;;5060380;28;20036;-62
2021/12/03 06:11:24;;;;;;;15.23;2.10;;;;;;;;;;5057508;28;20376;-62
2021/12/03 06:13:51;;;;;;;15.05;2.35;;;;;;;;;;5060791;28;20400;-62
2021/12/03 06:16:17;;;;;;;7.25;2.30;;;;;;;;;;5055252;28;20033;-62
2021/12/03 06:18:43;;;;;;;15.65;2.97;;;;;;;;;;5059114;28;20060;-62
2021/12/03 06:21:11;;;;;;;15.02;2.65;;;;;;;;;;5066635;28;20119;-62
2021/12/03 06:23:37;;;;;;;12.40;2.15;;;;;;;;;;5057573;28;20396;-62
2021/12/03 06:26:04;;;;;;;10.45;2.65;;;;;;;;;;5056927;28;20045;-62
2021/12/03 06:28:30;;;;;;;10.00;3.22;;;;;;;;;;5043722;28;20168;-61
2021/12/03 06:30:57;;;;;;;14.90;3.42;;;;;;;;;;5057969;28;20041;-62
2021/12/03 06:33:23;;;;;;;12.25;3.72;;;;;;;;;;5049153;28;20052;-62
2021/12/03 06:35:50;;;;;;;11.30;3.15;;;;;;;;;;5058767;28;20408;-62
2021/12/03 06:38:16;;;;;;;16.75;3.13;;;;;;;;;;5050302;28;20045;-62
2021/12/03 06:40:43;;;;;;;13.38;3.10;;;;;;;;;;5054571;28;20049;-61
2021/12/03 06:43:10;;;;;;;17.10;3.20;;;;;;;;;;5054534;28;20029;-62
2021/12/03 06:45:36;;;;;;;11.25;4.82;;;;;;;;;;5056246;28;20037;-62
2021/12/03 06:48:02;;;;;;;16.88;3.47;;;;;;;;;;5055612;28;20040;-62
2021/12/03 06:50:29;;;;;;;16.75;3.63;;;;;;;;;;5053018;28;20500;-62
2021/12/03 06:53:03;;;;;;;11.35;4.15;;;;;;;;;;5044565;28;20095;-62
2021/12/03 06:55:37;;;;;;;12.68;4.32;;;;;;;;;;5047407;28;20049;-62
2021/12/03 06:58:03;;;;;;;;;;;;;;;;;;5055818;28;20033;-62
2021/12/03 07:00:29;;;;;;;19.67;5.55;;;;;;;;;;5057821;28;19927;-62
2021/12/03 07:02:55;;;;;;;24.40;6.18;;;;;;;;;;5053069;28;20047;-61
2021/12/03 07:05:21;;;;;;;20.75;6.63;;;;;;;;;;5040168;28;20504;-62
2021/12/03 07:07:49;;;;;;;19.17;8.93;;;;;;;;;;5055804;28;20029;-62
2021/12/03 07:10:15;;;;;;;19.63;9.40;;;;;;;;;;5055772;28;20064;-61
2021/12/03 07:12:42;;;;;;;22.52;10.23;;;;;;;;;;5055072;28;20133;-61
2021/12/03 07:15:08;;;;;;;26.40;11.93;;;;;;;;;;5054580;28;20033;-61
2021/12/03 07:17:35;;;;;;;22.25;12.05;;;;;;;;;;5053156;28;20447;-62
2021/12/03 07:20:01;;;;;;;23.92;11.40;;;;;;;;;;5060211;28;20506;-61
2021/12/03 07:22:28;;;;;;;18.70;8.75;;;;;;;;;;5072684;28;20457;-61
2021/12/03 07:24:54;;;;;;;23.20;8.77;;;;;;;;;;5070930;28;20044;-61
2021/12/03 07:27:21;;;;;;;28.80;8.57;;;;;;;;;;5061914;28;20387;-62
2021/12/03 07:29:48;;;;;;;21.27;7.55;;;;;;;;;;5054085;28;20361;-62
2021/12/03 07:32:15;;;;;;;31.40;8.48;;;;;;;;;;5053932;28;20471;-62
2021/12/03 07:34:41;;;;;;;23.30;7.80;;;;;;;;;;5062358;28;20055;-63
2021/12/03 07:37:07;;;;;;;20.92;9.50;;;;;;;;;;5060413;28;20118;-63
2021/12/03 07:39:34;;;;;;;16.58;9.38;;;;;;;;;;5053349;28;20119;-62
2021/12/03 07:42:00;;;;;;;25.00;10.07;;;;;;;;;;5044684;28;20045;-62
2021/12/03 07:44:26;;;;;;;18.20;8.73;;;;;;;;;;5061644;28;20071;-62
2021/12/03 07:46:52;;;;;;;17.13;8.95;;;;;;;;;;5057444;28;20045;-62
2021/12/03 07:49:21;;;;;;;20.77;9.05;;;;;;;;;;5054482;28;20492;-62
2021/12/03 07:51:47;;;;;;;14.65;7.95;;;;;;;;;;5052853;28;20555;-62
2021/12/03 07:54:13;;;;;;;18.40;7.07;;;;;;;;;;5043362;28;20049;-62
2021/12/03 07:56:39;;;;;;;17.10;6.25;;;;;;;;;;5056381;28;20040;-62
2021/12/03 07:59:06;;;;;;;13.30;5.32;;;;;;;;;;5053989;28;20044;-62
2021/12/03 08:01:33;;;;;;;20.40;4.43;;;;;;;;;;5052521;28;20471;-62
2021/12/03 08:03:59;;;;;;;14.88;5.13;;;;;;;;;;5047373;28;20132;-62
2021/12/03 08:06:25;;;;;;;15.65;4.50;;;;;;;;;;5053505;28;20044;-62
2021/12/03 08:08:52;;;;;;;14.90;4.35;;;;;;;;;;5054526;28;20128;-62
2021/12/03 08:11:18;;;;;;;22.85;6.55;;;;;;;;;;5052532;28;20372;-62
2021/12/03 08:13:44;;;;;;;15.05;4.20;;;;;;;;;;5053699;28;20047;-61
2021/12/03 08:16:10;;;;;;;12.20;4.00;;;;;;;;;;5058448;28;20507;-62
2021/12/03 08:18:36;;;;;;;20.27;4.32;;;;;;;;;;5052120;28;20376;-62
2021/12/03 08:21:03;;;;;;;14.73;4.35;;;;;;;;;;5044152;28;20045;-62
2021/12/03 08:23:30;;;;;;;16.05;3.85;;;;;;;;;;5057521;28;20314;-62
2021/12/03 08:25:56;;;;;;;16.10;3.65;;;;;;;;;;5053378;28;20077;-62
2021/12/03 08:28:23;;;;;;;24.67;5.30;;;;;;;;;;5051582;28;20037;-62
2021/12/03 08:30:49;;;;;;;13.48;3.45;;;;;;;;;;5052037;28;20053;-62
2021/12/03 08:33:16;;;;;;;18.42;4.03;;;;;;;;;;5053759;28;20041;-62
2021/12/03 08:35:42;;;;;;;14.98;4.22;;;;;;;;;;5052819;28;20059;-62
2021/12/03 08:38:09;;;;;;;16.13;3.50;;;;;;;;;;5051606;28;20064;-62
2021/12/03 08:40:35;;;;;;;12.77;3.60;;;;;;;;;;5056220;28;20040;-62
2021/12/03 08:43:01;;;;;;;18.17;4.05;;;;;;;;;;5052929;28;20045;-62
2021/12/03 08:45:28;;;;;;;14.88;3.72;;;;;;;;;;5053970;28;20099;-62
2021/12/03 08:47:58;;;;;;;13.82;3.08;;;;;;;;;;5051744;28;20484;-62
2021/12/03 08:50:29;;;;;;;16.00;2.95;;;;;;;;;;5055140;28;20052;-62
2021/12/03 08:53:10;;;;;;;12.90;2.83;;;;;;;;;;5051912;28;20060;-62
2021/12/03 08:55:39;;;;;;;19.85;2.72;;;;;;;;;;5060388;28;20053;-61
2021/12/03 08:58:07;;;;;;;11.48;2.63;;;;;;;;;;5055617;28;20051;-62
2021/12/03 09:00:36;;;;;;;10.60;2.50;;;;;;;;;;5052743;28;20405;-62
2021/12/03 09:03:02;;;;;;;11.98;2.20;;;;;;;;;;5038178;28;20048;-62
2021/12/03 09:05:30;;;;;;;11.82;2.40;;;;;;;;;;5051661;28;20080;-62
2021/12/03 09:07:57;;;;;;;13.95;2.05;;;;;;;;;;5054950;28;20048;-62
2021/12/03 09:10:24;;;;;;;12.40;2.58;;;;;;;;;;5053776;28;20045;-62
2021/12/03 09:12:50;;;;;;;16.20;3.38;;;;;;;;;;5051336;28;20048;-62
2021/12/03 09:15:19;;;;;;;16.92;5.25;;;;;;;;;;5070477;28;20040;-62
2021/12/03 09:18:00;;;;;;;13.98;3.80;;;;;;;;;;5036210;28;20052;-62
2021/12/03 09:22:59;;;;;;;14.13;4.78;;;;;;;;;;5070384;28;20137;-62
2021/12/03 09:25:35;;;;;;;13.82;5.53;;;;;;;;;;5069870;28;20048;-63
2021/12/03 09:28:04;;;;;;;18.90;5.90;;;;;;;;;;5070035;28;20094;-62
2021/12/03 09:30:36;;;;;;;21.23;7.45;;;;;;;;;;5062970;28;20044;-62
2021/12/03 09:33:05;;;;;;;19.98;6.93;;;;;;;;;;5051845;28;20044;-62
2021/12/03 09:35:34;;;;;;;20.45;7.35;;;;;;;;;;5051826;28;20052;-62
2021/12/03 09:38:00;;;;;;;23.17;6.20;;;;;;;;;;5050893;28;20124;-61
2021/12/03 09:40:30;;;;;;;21.00;5.68;;;;;;;;;;5051927;28;20441;-61
2021/12/03 09:42:56;;;;;;;18.67;5.43;;;;;;;;;;5065127;28;20492;-61
2021/12/03 09:45:23;;;;;;;15.23;5.13;;;;;;;;;;5069353;28;20076;-62
2021/12/03 09:47:50;;;;;;;14.60;5.47;;;;;;;;;;5036435;28;20037;-62
2021/12/03 09:50:17;;;;;;;16.52;5.35;;;;;;;;;;5062680;28;20072;-62
2021/12/03 09:53:01;;;;;;;18.80;5.32;;;;;;;;;;5050553;28;20049;-62
2021/12/03 09:55:28;;;;;;;22.67;5.93;;;;;;;;;;5067209;28;20492;-62
2021/12/03 10:11:30;;;;;;;17.98;4.53;;;;;;;;;;5070163;28;20047;-62
2021/12/03 10:13:39;;;;;;;14.32;3.92;;;;;;;;;;5068628;28;20044;-62
2021/12/03 10:16:26;;;;;;;15.50;3.90;;;;;;;;;;5070111;28;20041;-62
2021/12/03 10:18:54;;;;;;;21.08;5.05;;;;;;;;;;5051433;28;20041;-62
2021/12/03 10:24:38;;;;;;;23.07;4.40;;;;;;;;;;5039864;28;20044;-62
2021/12/03 10:27:47;;;;;;;21.30;5.25;;;;;;;;;;5052669;28;20366;-62
2021/12/03 10:30:45;;;;;;;20.35;3.67;;;;;;;;;;5053144;28;20121;-62
2021/12/03 10:41:31;;;;;;;15.40;3.67;;;;;;;;;;5072499;28;20040;-62
2021/12/03 10:49:13;;;;;;;20.27;4.65;;;;;;;;;;5035858;28;20081;-62
2021/12/03 10:54:36;;;;;;;18.00;3.40;;;;;;;;;;5054580;28;20163;-62
2021/12/03 10:57:20;;;;;;;10.75;3.30;;;;;;;;;;5051232;28;20116;-62
2021/12/03 11:00:17;;;;;;;15.52;3.95;;;;;;;;;;5056657;28;20041;-62
2021/12/03 11:27:15;;;;;;;24.50;5.55;;;;;;;;;;5068183;28;20127;-64
2021/12/03 11:39:40;;;;;;;15.85;5.50;;;;;;;;;;5053137;28;20127;-63
2021/12/03 11:43:04;;;;;;;11.45;5.15;;;;;;;;;;5057958;28;20068;-63
2021/12/03 11:45:59;;;;;;;21.40;6.20;;;;;;;;;;5053718;28;20048;-63
2021/12/03 12:15:35;;;;;;;17.33;5.93;;;;;;;;;;5049232;28;20147;-63
2021/12/03 12:27:13;;;;;;;18.55;7.80;;;;;;;;;;5051043;28;20064;-62
2021/12/03 12:57:30;;;;;;;20.10;9.20;;;;;;;;;;5071637;28;20048;-63
2021/12/03 13:06:01;;;;;;;18.25;8.38;;;;;;;;;;5054095;28;20048;-63
2021/12/03 13:11:15;;;;;;;20.38;7.22;;;;;;;;;;5053549;28;20048;-63
2021/12/03 13:16:38;;;;;;;17.52;7.18;;;;;;;;;;5053306;28;20063;-63
2021/12/03 13:25:02;;;;;;;14.57;5.88;;;;;;;;;;5053362;28;20057;-63
2021/12/03 13:27:05;;;;;;;24.27;6.70;;;;;;;;;;5071908;28;20041;-63
2021/12/03 13:39:11;;;;;;;19.00;7.30;;;;;;;;;;5071097;28;20049;-63
2021/12/03 13:42:37;;;;;;;18.02;6.88;;;;;;;;;;5053747;28;20047;-63
2021/12/03 13:59:50;;;;;;;23.85;7.97;;;;;;;;;;5070841;28;20041;-63
2021/12/03 14:05:26;;;;;;;20.85;8.35;;;;;;;;;;5071005;28;20049;-63
2021/12/03 14:25:57;;;;;;;19.40;10.10;;;;;;;;;;5057155;28;20051;-63
2021/12/03 14:28:45;;;;;;;27.02;11.15;;;;;;;;;;5074169;28;20132;-63
2021/12/03 14:35:48;;;;;;;25.02;11.13;;;;;;;;;;5056235;28;20056;-63
2021/12/03 14:38:05;;;;;;;22.63;11.40;;;;;;;;;;5074756;28;20040;-63
2021/12/03 14:43:10;;;;;;;22.90;13.05;;;;;;;;;;5075262;28;20068;-63
2021/12/03 14:50:58;;;;;;;26.95;14.50;;;;;;;;;;5074561;28;20141;-63
2021/12/03 14:53:40;;;;;;;23.60;14.20;;;;;;;;;;5074760;28;20080;-63
2021/12/03 14:56:10;;;;;;;26.17;14.82;;;;;;;;;;5074014;28;20116;-63
2021/12/03 14:58:53;;;;;;;22.58;14.75;;;;;;;;;;5055527;28;20119;-63
2021/12/03 15:01:31;;;;;;;27.73;18.02;;;;;;;;;;5053267;28;20159;-63
2021/12/03 15:04:31;;;;;;;34.05;18.00;;;;;;;;;;5054488;28;20041;-63
2021/12/03 15:07:05;;;;;;;35.88;19.02;;;;;;;;;;5036379;28;20102;-63
2021/12/03 15:09:35;;;;;;;39.60;20.58;;;;;;;;;;5053733;28;20045;-63
2021/12/03 15:12:25;;;;;;;42.00;21.10;;;;;;;;;;5036150;28;20094;-63
2021/12/03 15:18:31;;;;;;;41.05;22.08;;;;;;;;;;5052933;28;20139;-63
2021/12/03 15:23:21;;;;;;;43.97;23.13;;;;;;;;;;5035168;28;20556;-63
2021/12/03 15:28:51;;;;;;;42.15;25.05;;;;;;;;;;5036171;28;20408;-63
2021/12/03 15:31:40;;;;;;;39.75;24.52;;;;;;;;;;5052857;28;20041;-63
2021/12/03 15:34:18;;;;;;;41.65;24.77;;;;;;;;;;5053737;28;20056;-63
2021/12/03 15:37:12;;;;;;;37.88;24.63;;;;;;;;;;5053254;28;20040;-63
2021/12/03 16:03:53;;;;;;;45.38;28.55;;;;;;;;;;5051824;28;20049;-63
2021/12/03 16:06:52;;;;;;;51.78;30.15;;;;;;;;;;5052713;28;20404;-63
2021/12/03 16:09:55;;;;;;;57.88;31.35;;;;;;;;;;5053173;28;20045;-63
2021/12/03 16:14:54;;;;;;;49.73;28.70;;;;;;;;;;5053193;28;20088;-63
2021/12/03 16:17:38;;;;;;;47.35;29.30;;;;;;;;;;5053065;28;20435;-63
2021/12/03 16:20:23;;;;;;;48.15;29.77;;;;;;;;;;5052102;28;20067;-63
2021/12/03 16:25:50;;;;;;;48.38;29.90;;;;;;;;;;5051076;28;20439;-63
2021/12/03 16:44:59;;;;;;;51.85;28.98;;;;;;;;;;5052609;28;20049;-63
2021/12/03 16:52:44;;;;;;;46.80;26.52;;;;;;;;;;5052177;28;20057;-62
2021/12/03 16:55:10;;;;;;;42.60;27.75;;;;;;;;;;5033384;28;20126;-62
2021/12/03 16:57:37;;;;;;;43.53;28.52;;;;;;;;;;5052327;28;20487;-63
2021/12/03 17:00:20;;;;;;;46.08;28.58;;;;;;;;;;5052426;28;20385;-63
2021/12/03 17:02:53;;;;;;;44.97;27.08;;;;;;;;;;5051621;28;20044;-63
2021/12/03 17:05:42;;;;;;;43.28;25.13;;;;;;;;;;5034201;28;20191;-63
2021/12/03 17:08:31;;;;;;;42.28;27.00;;;;;;;;;;5051586;28;20045;-63
2021/12/03 17:13:52;;;;;;;45.33;26.20;;;;;;;;;;5052678;28;20468;-63
2021/12/03 17:19:35;;;;;;;44.88;26.77;;;;;;;;;;5052264;28;20143;-63
2021/12/03 17:48:48;;;;;;;48.90;27.08;;;;;;;;;;5051741;28;20122;-63
2021/12/03 17:51:38;;;;;;;48.08;28.58;;;;;;;;;;5054934;28;20057;-63
2021/12/03 17:56:47;;;;;;;52.40;28.05;;;;;;;;;;5055806;28;20049;-63
2021/12/03 17:59:22;;;;;;;53.40;30.60;;;;;;;;;;5037086;28;20056;-63
2021/12/03 18:02:00;;;;;;;52.33;29.02;;;;;;;;;;5037806;28;20083;-63
2021/12/03 18:04:42;;;;;;;50.63;27.73;;;;;;;;;;5054918;28;20053;-63
2021/12/03 18:07:25;;;;;;;39.97;24.73;;;;;;;;;;5037724;28;20048;-63
2021/12/03 18:50:34;;;;;;;64.13;30.92;;;;;;;;;;5054675;28;20045;-62
2021/12/03 18:53:13;;;;;;;66.72;32.53;;;;;;;;;;5054710;28;20045;-63
2021/12/03 18:55:44;;;;;;;61.70;32.22;;;;;;;;;;5054734;28;20098;-62
2021/12/03 18:58:11;;;;;;;58.15;30.73;;;;;;;;;;5054570;28;20049;-63
2021/12/03 19:00:39;;;;;;;62.63;30.75;;;;;;;;;;5053383;28;20049;-63
2021/12/03 19:03:21;;;;;;;66.05;31.60;;;;;;;;;;5054697;28;20070;-63
2021/12/03 19:08:40;;;;;;;64.32;32.08;;;;;;;;;;5053681;28;20404;-63
2021/12/03 19:11:15;;;;;;;;;;;;;;;;;;5055028;28;20209;-63
2021/12/03 19:13:42;;;;;;;72.43;33.95;;;;;;;;;;5054435;28;19920;-63
2021/12/03 19:16:13;;;;;;;74.25;34.25;;;;;;;;;;5053781;28;20053;-63
2021/12/03 19:18:45;;;;;;;73.00;37.80;;;;;;;;;;5036603;28;20056;-63
2021/12/03 19:21:17;;;;;;;82.50;37.05;;;;;;;;;;5054110;28;20432;-63
2021/12/03 19:23:44;;;;;;;78.72;37.67;;;;;;;;;;5036113;28;20052;-63
2021/12/03 19:26:10;;;;;;;87.65;40.92;;;;;;;;;;5054279;28;20529;-63
2021/12/03 19:28:36;;;;;;;88.28;39.83;;;;;;;;;;5053660;28;20041;-63
2021/12/03 19:31:05;;;;;;;84.63;40.47;;;;;;;;;;5054008;28;20037;-63
2021/12/03 19:33:33;;;;;;;92.80;40.92;;;;;;;;;;5053863;28;20070;-63
2021/12/03 19:35:59;;;;;;;103.13;43.67;;;;;;;;;;5053210;28;20049;-63
2021/12/03 19:38:26;;;;;;;102.07;43.88;;;;;;;;;;5036093;28;20120;-63
2021/12/03 19:40:57;;;;;;;105.65;44.15;;;;;;;;;;5035842;28;20045;-63
2021/12/03 19:43:41;;;;;;;109.93;46.30;;;;;;;;;;5052984;28;20132;-63
2021/12/03 19:46:08;;;;;;;100.53;46.22;;;;;;;;;;5053901;28;20575;-63
2021/12/03 19:48:38;;;;;;;108.28;44.95;;;;;;;;;;5053732;28;20045;-63
2021/12/03 19:51:12;;;;;;;109.50;45.53;;;;;;;;;;5034662;28;20056;-63
2021/12/03 19:53:43;;;;;;;112.20;46.45;;;;;;;;;;5035944;28;20049;-63
2021/12/03 19:56:10;;;;;;;114.10;47.28;;;;;;;;;;5053627;28;20090;-63
2021/12/03 19:58:36;;;;;;;107.78;46.78;;;;;;;;;;5035001;28;20388;-63
2021/12/03 20:01:02;;;;;;;113.03;47.20;;;;;;;;;;5053558;28;20071;-63
2021/12/03 20:03:28;;;;;;;116.50;47.75;;;;;;;;;;5052805;28;20119;-63
2021/12/03 20:05:54;;;;;;;111.53;47.05;;;;;;;;;;5035821;28;20122;-63
2021/12/03 20:08:22;;;;;;;97.07;43.97;;;;;;;;;;5053439;28;20092;-63
2021/12/03 20:10:50;;;;;;;105.70;44.33;;;;;;;;;;5052551;28;20048;-63
2021/12/03 20:13:22;;;;;;;105.45;44.53;;;;;;;;;;5052352;28;20075;-63
2021/12/03 20:16:01;;;;;;;103.35;42.97;;;;;;;;;;5053318;28;20099;-63
2021/12/03 20:18:34;;;;;;;99.78;45.08;;;;;;;;;;5052434;28;20041;-63
2021/12/03 20:21:00;;;;;;;101.53;45.35;;;;;;;;;;5035366;28;20052;-63
2021/12/03 20:26:09;;;;;;;109.63;48.75;;;;;;;;;;5052116;28;20040;-63
2021/12/03 20:28:40;;;;;;;120.97;49.22;;;;;;;;;;5053129;28;20185;-63
2021/12/03 20:31:08;;;;;;;118.65;47.80;;;;;;;;;;5052894;28;20037;-63
2021/12/03 20:33:51;;;;;;;133.50;49.92;;;;;;;;;;5051986;28;20037;-63